sensor_id;sensor_type;location;lat;lon;timestamp;pressure;altitude;pressure_sealevel;temperature;humidity
56721;BME280;53183;47.412;18.884;2022-11-11T00:01:15;100735.56;;;7.37;100.00
56721;BME280;53183;47.412;18.884;2022-11-11T00:04:01;100733.84;;;7.35;100.00
56721;BME280;53183;47.412;18.884;2022-11-11T00:06:46;100732.06;;;7.35;100.00
56721;BME280;53183;47.412;18.884;2022-11-11T00:09:32;100734.69;;;7.35;100.00
56721;BME280;53183;47.412;18.884;2022-11-11T00:12:17;100736.59;;;7.28;100.00
56721;BME280;53183;47.412;18.884;2022-11-11T00:15:04;100748.09;;;7.24;100.00
56721;BME280;53183;47.412;18.884;2022-11-11T00:17:50;100754.31;;;7.19;100.00
56721;BME280;53183;47.412;18.884;2022-11-11T00:20:57;100750.06;;;7.12;100.00
56721;BME280;53183;47.412;18.884;2022-11-11T00:24:12;100754.47;;;7.10;100.00
56721;BME280;53183;47.412;18.884;2022-11-11T00:27:22;100753.69;;;7.06;100.00
56721;BME280;53183;47.412;18.884;2022-11-11T00:30:08;100763.53;;;6.95;100.00
56721;BME280;53183;47.412;18.884;2022-11-11T00:32:54;100760.06;;;6.93;100.00
56721;BME280;53183;47.412;18.884;2022-11-11T00:35:39;100754.91;;;6.88;100.00
56721;BME280;53183;47.412;18.884;2022-11-11T00:38:40;100756.63;;;6.88;100.00
56721;BME280;53183;47.412;18.884;2022-11-11T00:41:37;100763.53;;;6.95;100.00
56721;BME280;53183;47.412;18.884;2022-11-11T00:44:22;100765.00;;;7.10;100.00
56721;BME280;53183;47.412;18.884;2022-11-11T00:47:08;100757.00;;;7.17;100.00
56721;BME280;53183;47.412;18.884;2022-11-11T00:50:18;100757.56;;;7.32;100.00
56721;BME280;53183;47.412;18.884;2022-11-11T00:53:24;100761.81;;;7.39;100.00
56721;BME280;53183;47.412;18.884;2022-11-11T00:56:12;100764.25;;;7.46;100.00
56721;BME280;53183;47.412;18.884;2022-11-11T00:58:58;100767.69;;;7.50;100.00
56721;BME280;53183;47.412;18.884;2022-11-11T01:01:43;100768.59;;;7.49;100.00
56721;BME280;53183;47.412;18.884;2022-11-11T01:04:31;100768.59;;;7.50;100.00
56721;BME280;53183;47.412;18.884;2022-11-11T01:07:16;100766.97;;;7.43;100.00
56721;BME280;53183;47.412;18.884;2022-11-11T01:10:02;100764.47;;;7.37;100.00
56721;BME280;53183;47.412;18.884;2022-11-11T01:12:53;100762.84;;;7.30;100.00
56721;BME280;53183;47.412;18.884;2022-11-11T01:16:02;100762.09;;;7.23;100.00
56721;BME280;53183;47.412;18.884;2022-11-11T01:18:49;100761.97;;;7.29;100.00
56721;BME280;53183;47.412;18.884;2022-11-11T01:21:35;100757.00;;;7.17;100.00
56721;BME280;53183;47.412;18.884;2022-11-11T01:24:21;100758.81;;;7.12;100.00
56721;BME280;53183;47.412;18.884;2022-11-11T01:27:06;100756.16;;;7.14;100.00
56721;BME280;53183;47.412;18.884;2022-11-11T01:29:51;100764.78;;;7.20;100.00
56721;BME280;53183;47.412;18.884;2022-11-11T01:32:37;100761.28;;;7.21;100.00
56721;BME280;53183;47.412;18.884;2022-11-11T01:35:23;100769.34;;;7.11;100.00
56721;BME280;53183;47.412;18.884;2022-11-11T01:38:09;100761.41;;;7.15;100.00
56721;BME280;53183;47.412;18.884;2022-11-11T01:40:54;100759.84;;;7.05;100.00
56721;BME280;53183;47.412;18.884;2022-11-11T01:43:40;100761.56;;;7.06;100.00
56721;BME280;53183;47.412;18.884;2022-11-11T01:46:56;100772.28;;;6.95;100.00
56721;BME280;53183;47.412;18.884;2022-11-11T01:52:34;100764.25;;;7.03;100.00
56721;BME280;53183;47.412;18.884;2022-11-11T01:55:21;100760.81;;;6.99;100.00
56721;BME280;53183;47.412;18.884;2022-11-11T01:58:12;100758.13;;;7.02;100.00
56721;BME280;53183;47.412;18.884;2022-11-11T02:00:59;100756.34;;;7.04;100.00
56721;BME280;53183;47.412;18.884;2022-11-11T02:03:48;100750.41;;;6.93;100.00
56721;BME280;53183;47.412;18.884;2022-11-11T02:06:57;100743.50;;;6.89;100.00
56721;BME280;53183;47.412;18.884;2022-11-11T02:09:46;100745.25;;;6.89;100.00
56721;BME280;53183;47.412;18.884;2022-11-11T02:12:32;100753.09;;;6.92;100.00
56721;BME280;53183;47.412;18.884;2022-11-11T02:15:45;100759.34;;;6.85;100.00
56721;BME280;53183;47.412;18.884;2022-11-11T02:18:31;100758.41;;;6.89;100.00
56721;BME280;53183;47.412;18.884;2022-11-11T02:21:32;100755.47;;;7.04;100.00
56721;BME280;53183;47.412;18.884;2022-11-11T02:24:21;100756.34;;;7.04;100.00
56721;BME280;53183;47.412;18.884;2022-11-11T02:27:13;100754.66;;;7.02;100.00
56721;BME280;53183;47.412;18.884;2022-11-11T02:30:01;100759.09;;;6.97;100.00
56721;BME280;53183;47.412;18.884;2022-11-11T02:32:50;100768.75;;;6.96;100.00
56721;BME280;53183;47.412;18.884;2022-11-11T02:35:41;100764.41;;;6.95;100.00
56721;BME280;53183;47.412;18.884;2022-11-11T02:38:28;100760.75;;;7.02;100.00
56721;BME280;53183;47.412;18.884;2022-11-11T02:41:15;100753.84;;;6.97;100.00
56721;BME280;53183;47.412;18.884;2022-11-11T02:44:19;100766.06;;;7.01;100.00
56721;BME280;53183;47.412;18.884;2022-11-11T02:47:06;100774.81;;;7.00;100.00
56721;BME280;53183;47.412;18.884;2022-11-11T02:49:51;100764.19;;;7.08;100.00
56721;BME280;53183;47.412;18.884;2022-11-11T02:52:37;100771.31;;;7.01;100.00
56721;BME280;53183;47.412;18.884;2022-11-11T02:55:22;100777.50;;;6.98;100.00
56721;BME280;53183;47.412;18.884;2022-11-11T02:58:09;100773.09;;;6.99;100.00
56721;BME280;53183;47.412;18.884;2022-11-11T03:00:55;100779.97;;;7.06;100.00
56721;BME280;53183;47.412;18.884;2022-11-11T03:03:41;100779.00;;;7.10;100.00
56721;BME280;53183;47.412;18.884;2022-11-11T03:06:27;100779.97;;;7.06;100.00
56721;BME280;53183;47.412;18.884;2022-11-11T03:09:13;100781.72;;;7.05;100.00
56721;BME280;53183;47.412;18.884;2022-11-11T03:11:58;100788.59;;;7.13;100.00
56721;BME280;53183;47.412;18.884;2022-11-11T03:14:44;100797.34;;;7.13;100.00
56721;BME280;53183;47.412;18.884;2022-11-11T03:17:30;100795.72;;;7.08;100.00
56721;BME280;53183;47.412;18.884;2022-11-11T03:20:25;100795.78;;;7.03;100.00
56721;BME280;53183;47.412;18.884;2022-11-11T03:23:29;100797.59;;;7.01;100.00
56721;BME280;53183;47.412;18.884;2022-11-11T03:26:14;100795.88;;;6.98;100.00
56721;BME280;53183;47.412;18.884;2022-11-11T03:29:00;100805.72;;;6.87;100.00
56721;BME280;53183;47.412;18.884;2022-11-11T03:31:45;100807.56;;;6.82;100.00
56721;BME280;53183;47.412;18.884;2022-11-11T03:34:31;100811.16;;;6.76;100.00
56721;BME280;53183;47.412;18.884;2022-11-11T03:37:16;100818.19;;;6.76;100.00
56721;BME280;53183;47.412;18.884;2022-11-11T03:40:20;100809.44;;;6.74;100.00
56721;BME280;53183;47.412;18.884;2022-11-11T03:43:06;100828.78;;;6.71;100.00
56721;BME280;53183;47.412;18.884;2022-11-11T03:45:53;100826.19;;;6.68;100.00
56721;BME280;53183;47.412;18.884;2022-11-11T03:48:39;100824.34;;;6.75;100.00
56721;BME280;53183;47.412;18.884;2022-11-11T03:51:24;100831.41;;;6.71;100.00
56721;BME280;53183;47.412;18.884;2022-11-11T03:54:10;100831.41;;;6.71;100.00
56721;BME280;53183;47.412;18.884;2022-11-11T03:56:55;100828.88;;;6.64;100.00
56721;BME280;53183;47.412;18.884;2022-11-11T04:00:01;100824.47;;;6.64;100.00
56721;BME280;53183;47.412;18.884;2022-11-11T04:02:47;100820.19;;;6.60;100.00
56721;BME280;53183;47.412;18.884;2022-11-11T04:05:52;100828.00;;;6.63;100.00
56721;BME280;53183;47.412;18.884;2022-11-11T04:08:56;100824.56;;;6.58;100.00
56721;BME280;53183;47.412;18.884;2022-11-11T04:12:00;100822.81;;;6.60;100.00
56721;BME280;53183;47.412;18.884;2022-11-11T04:14:45;100828.97;;;6.57;100.00
56721;BME280;53183;47.412;18.884;2022-11-11T04:17:49;100823.66;;;6.61;100.00
56721;BME280;53183;47.412;18.884;2022-11-11T04:20:35;100831.62;;;6.56;100.00
56721;BME280;53183;47.412;18.884;2022-11-11T04:23:39;100832.47;;;6.58;100.00
56721;BME280;53183;47.412;18.884;2022-11-11T04:26:24;100833.37;;;6.57;100.00
56721;BME280;53183;47.412;18.884;2022-11-11T04:29:09;100830.63;;;6.63;100.00
56721;BME280;53183;47.412;18.884;2022-11-11T04:32:18;100836.66;;;6.71;100.00
56721;BME280;53183;47.412;18.884;2022-11-11T04:35:23;100843.59;;;6.75;100.00
56721;BME280;53183;47.412;18.884;2022-11-11T04:38:08;100844.53;;;6.71;100.00
56721;BME280;53183;47.412;18.884;2022-11-11T04:41:12;100843.63;;;6.72;100.00
56721;BME280;53183;47.412;18.884;2022-11-11T04:43:58;100854.13;;;6.72;100.00
56721;BME280;53183;47.412;18.884;2022-11-11T04:47:02;100853.19;;;6.76;100.00
56721;BME280;53183;47.412;18.884;2022-11-11T04:49:48;100848.06;;;6.69;100.00
56721;BME280;53183;47.412;18.884;2022-11-11T04:52:33;100849.81;;;6.70;100.00
56721;BME280;53183;47.412;18.884;2022-11-11T04:55:19;100846.34;;;6.66;100.00
56721;BME280;53183;47.412;18.884;2022-11-11T04:58:25;100850.66;;;6.70;100.00
56721;BME280;53183;47.412;18.884;2022-11-11T05:01:12;100862.06;;;6.69;100.00
56721;BME280;53183;47.412;18.884;2022-11-11T05:04:17;100861.22;;;6.69;100.00
56721;BME280;53183;47.412;18.884;2022-11-11T05:07:02;100855.81;;;6.76;100.00
56721;BME280;53183;47.412;18.884;2022-11-11T05:10:07;100855.09;;;6.67;100.00
56721;BME280;53183;47.412;18.884;2022-11-11T05:12:52;100858.75;;;6.56;100.00
56721;BME280;53183;47.412;18.884;2022-11-11T05:15:37;100860.56;;;6.51;100.00
56721;BME280;53183;47.412;18.884;2022-11-11T05:18:41;100856.19;;;6.55;100.00
56721;BME280;53183;47.412;18.884;2022-11-11T05:21:45;100849.94;;;6.62;100.00
56721;BME280;53183;47.412;18.884;2022-11-11T05:24:31;100855.16;;;6.64;100.00
56721;BME280;53183;47.412;18.884;2022-11-11T05:27:35;100855.19;;;6.62;100.00
56721;BME280;53183;47.412;18.884;2022-11-11T05:30:22;100850.75;;;6.64;100.00
56721;BME280;53183;47.412;18.884;2022-11-11T05:33:08;100849.84;;;6.68;100.00
56721;BME280;53183;47.412;18.884;2022-11-11T05:35:54;100858.59;;;6.67;100.00
56721;BME280;53183;47.412;18.884;2022-11-11T05:38:40;100859.44;;;6.68;100.00
56721;BME280;53183;47.412;18.884;2022-11-11T05:41:25;100860.37;;;6.65;100.00
56721;BME280;53183;47.412;18.884;2022-11-11T05:44:11;100859.50;;;6.66;100.00
56721;BME280;53183;47.412;18.884;2022-11-11T05:46:57;100861.22;;;6.67;100.00
56721;BME280;53183;47.412;18.884;2022-11-11T05:49:43;100868.28;;;6.65;100.00
56721;BME280;53183;47.412;18.884;2022-11-11T05:52:29;100869.22;;;6.58;100.00
56721;BME280;53183;47.412;18.884;2022-11-11T05:55:14;100872.66;;;6.63;100.00
56721;BME280;53183;47.412;18.884;2022-11-11T05:58:00;100881.37;;;6.68;100.00
56721;BME280;53183;47.412;18.884;2022-11-11T06:00:45;100876.06;;;6.70;100.00
56721;BME280;53183;47.412;18.884;2022-11-11T06:03:31;100887.47;;;6.67;100.00
56721;BME280;53183;47.412;18.884;2022-11-11T06:06:16;100888.50;;;6.58;100.00
56721;BME280;53183;47.412;18.884;2022-11-11T06:09:02;100890.19;;;6.63;100.00
56721;BME280;53183;47.412;18.884;2022-11-11T06:11:48;100886.62;;;6.68;100.00
56721;BME280;53183;47.412;18.884;2022-11-11T06:14:33;100892.69;;;6.72;100.00
56721;BME280;53183;47.412;18.884;2022-11-11T06:17:19;100899.75;;;6.68;100.00
56721;BME280;53183;47.412;18.884;2022-11-11T06:20:05;100903.19;;;6.70;100.00
56721;BME280;53183;47.412;18.884;2022-11-11T06:22:51;100902.34;;;6.70;100.00
56721;BME280;53183;47.412;18.884;2022-11-11T06:25:42;100909.34;;;6.69;100.00
56721;BME280;53183;47.412;18.884;2022-11-11T06:28:47;100909.31;;;6.72;100.00
56721;BME280;53183;47.412;18.884;2022-11-11T06:31:33;100903.97;;;6.77;100.00
56721;BME280;53183;47.412;18.884;2022-11-11T06:34:18;100912.69;;;6.80;100.00
56721;BME280;53183;47.412;18.884;2022-11-11T06:37:04;100919.50;;;6.91;100.00
56721;BME280;53183;47.412;18.884;2022-11-11T06:39:49;100925.63;;;6.94;100.00
56721;BME280;53183;47.412;18.884;2022-11-11T06:42:37;100916.56;;;7.12;100.00
56721;BME280;53183;47.412;18.884;2022-11-11T06:45:23;100919.16;;;7.14;100.00
56721;BME280;53183;47.412;18.884;2022-11-11T06:48:09;100921.66;;;7.21;100.00
56721;BME280;53183;47.412;18.884;2022-11-11T06:51:03;100922.38;;;7.31;100.00
56721;BME280;53183;47.412;18.884;2022-11-11T06:54:11;100921.37;;;7.37;100.00
56721;BME280;53183;47.412;18.884;2022-11-11T06:56:56;100915.84;;;7.52;100.00
56721;BME280;53183;47.412;18.884;2022-11-11T06:59:42;100924.50;;;7.60;100.00
56721;BME280;53183;47.412;18.884;2022-11-11T07:02:27;100919.84;;;7.73;100.00
56721;BME280;53183;47.412;18.884;2022-11-11T07:05:12;100927.44;;;7.88;100.00
56721;BME280;53183;47.412;18.884;2022-11-11T07:08:06;100938.69;;;7.96;100.00
56721;BME280;53183;47.412;18.884;2022-11-11T07:10:52;100947.28;;;8.05;100.00
56721;BME280;53183;47.412;18.884;2022-11-11T07:13:38;100952.44;;;8.11;100.00
56721;BME280;53183;47.412;18.884;2022-11-11T07:16:23;100960.06;;;8.25;100.00
56721;BME280;53183;47.412;18.884;2022-11-11T07:19:08;100960.69;;;8.37;100.00
56721;BME280;53183;47.412;18.884;2022-11-11T07:21:54;100967.56;;;8.46;100.00
56721;BME280;53183;47.412;18.884;2022-11-11T07:24:40;100968.31;;;8.51;100.00
56721;BME280;53183;47.412;18.884;2022-11-11T07:27:25;100973.44;;;8.57;100.00
56721;BME280;53183;47.412;18.884;2022-11-11T07:30:11;100982.06;;;8.65;100.00
56721;BME280;53183;47.412;18.884;2022-11-11T07:32:56;100993.25;;;8.75;100.00
56721;BME280;53183;47.412;18.884;2022-11-11T07:35:42;100992.25;;;8.82;100.00
56721;BME280;53183;47.412;18.884;2022-11-11T07:38:27;100999.09;;;8.89;100.00
56721;BME280;53183;47.412;18.884;2022-11-11T07:41:12;100994.47;;;8.99;100.00
56721;BME280;53183;47.412;18.884;2022-11-11T07:43:58;100996.84;;;9.11;100.00
56721;BME280;53183;47.412;18.884;2022-11-11T07:46:43;101004.50;;;9.21;100.00
56721;BME280;53183;47.412;18.884;2022-11-11T07:49:29;101009.69;;;9.25;100.00
56721;BME280;53183;47.412;18.884;2022-11-11T07:52:14;101007.69;;;9.35;100.00
56721;BME280;53183;47.412;18.884;2022-11-11T07:54:59;101008.16;;;9.51;100.00
56721;BME280;53183;47.412;18.884;2022-11-11T07:57:44;101013.41;;;9.52;100.00
56721;BME280;53183;47.412;18.884;2022-11-11T08:00:30;101010.72;;;9.55;99.81
56721;BME280;53183;47.412;18.884;2022-11-11T08:03:16;101008.81;;;9.60;100.00
56721;BME280;53183;47.412;18.884;2022-11-11T08:06:01;101011.13;;;9.73;99.03
56721;BME280;53183;47.412;18.884;2022-11-11T08:08:48;101007.56;;;9.74;98.52
56721;BME280;53183;47.412;18.884;2022-11-11T08:11:34;101012.44;;;9.91;98.48
56721;BME280;53183;47.412;18.884;2022-11-11T08:14:37;101017.44;;;10.00;98.04
56721;BME280;53183;47.412;18.884;2022-11-11T08:17:23;101011.75;;;10.15;97.39
56721;BME280;53183;47.412;18.884;2022-11-11T08:20:09;101018.66;;;10.21;96.85
56721;BME280;53183;47.412;18.884;2022-11-11T08:22:54;101016.03;;;10.19;96.61
56721;BME280;53183;47.412;18.884;2022-11-11T08:26:04;101011.16;;;10.38;94.88
56721;BME280;53183;47.412;18.884;2022-11-11T08:28:51;101016.72;;;10.59;94.13
56721;BME280;53183;47.412;18.884;2022-11-11T08:31:38;101008.88;;;10.55;93.71
56721;BME280;53183;47.412;18.884;2022-11-11T08:34:24;101013.47;;;10.78;91.20
56721;BME280;53183;47.412;18.884;2022-11-11T08:37:10;101025.59;;;10.86;92.47
56721;BME280;53183;47.412;18.884;2022-11-11T08:39:55;101029.81;;;10.93;92.24
56721;BME280;53183;47.412;18.884;2022-11-11T08:42:41;101039.41;;;10.95;91.12
56721;BME280;53183;47.412;18.884;2022-11-11T08:45:27;101036.94;;;11.19;90.58
56721;BME280;53183;47.412;18.884;2022-11-11T08:48:12;101028.94;;;11.48;89.61
56721;BME280;53183;47.412;18.884;2022-11-11T08:50:58;101019.00;;;11.55;87.34
56721;BME280;53183;47.412;18.884;2022-11-11T08:53:44;101013.34;;;11.66;86.98
56721;BME280;53183;47.412;18.884;2022-11-11T08:56:29;101021.03;;;11.47;88.42
56721;BME280;53183;47.412;18.884;2022-11-11T08:59:14;101018.00;;;11.58;87.36
56721;BME280;53183;47.412;18.884;2022-11-11T09:02:00;101021.19;;;11.69;87.24
56721;BME280;53183;47.412;18.884;2022-11-11T09:04:45;101025.75;;;11.90;85.37
56721;BME280;53183;47.412;18.884;2022-11-11T09:07:38;101028.09;;;12.00;83.10
56721;BME280;53183;47.412;18.884;2022-11-11T09:10:24;101035.66;;;11.84;83.85
56721;BME280;53183;47.412;18.884;2022-11-11T09:13:09;101038.59;;;11.76;84.89
56721;BME280;53183;47.412;18.884;2022-11-11T09:15:54;101038.59;;;11.76;84.57
56721;BME280;53183;47.412;18.884;2022-11-11T09:18:40;101029.87;;;11.72;85.49
56721;BME280;53183;47.412;18.884;2022-11-11T09:21:25;101026.09;;;12.06;83.53
56721;BME280;53183;47.412;18.884;2022-11-11T09:24:11;101035.03;;;12.27;81.86
56721;BME280;53183;47.412;18.884;2022-11-11T09:26:57;101026.66;;;12.39;83.79
56721;BME280;53183;47.412;18.884;2022-11-11T09:29:42;101039.66;;;12.22;82.56
56721;BME280;53183;47.412;18.884;2022-11-11T09:32:28;101031.88;;;12.17;80.98
56721;BME280;53183;47.412;18.884;2022-11-11T09:35:13;101035.59;;;12.37;80.19
56721;BME280;53183;47.412;18.884;2022-11-11T09:38:00;101032.56;;;12.23;83.27
56721;BME280;53183;47.412;18.884;2022-11-11T09:43:57;101026.16;;;12.05;83.67
56721;BME280;53183;47.412;18.884;2022-11-11T09:53:21;101013.63;;;11.85;83.19
56721;BME280;53183;47.412;18.884;2022-11-11T09:56:16;101018.75;;;11.89;85.09
56721;BME280;53183;47.412;18.884;2022-11-11T09:59:19;101015.69;;;12.00;84.10
56721;BME280;53183;47.412;18.884;2022-11-11T10:02:18;101015.53;;;12.30;83.28
56721;BME280;53183;47.412;18.884;2022-11-11T10:05:18;101021.19;;;12.44;82.37
56721;BME280;53183;47.412;18.884;2022-11-11T10:08:22;101016.78;;;12.66;82.48
56721;BME280;53183;47.412;18.884;2022-11-11T10:11:11;101013.44;;;12.85;81.06
56721;BME280;53183;47.412;18.884;2022-11-11T10:13:59;101020.09;;;12.97;80.36
56721;BME280;53183;47.412;18.884;2022-11-11T10:17:05;101014.03;;;13.15;79.15
56721;BME280;53183;47.412;18.884;2022-11-11T10:22:52;101015.75;;;13.40;79.18
56721;BME280;53183;47.412;18.884;2022-11-11T10:25:53;101004.31;;;13.58;78.97
56721;BME280;53183;47.412;18.884;2022-11-11T10:28:42;100999.22;;;13.53;80.27
56721;BME280;53183;47.412;18.884;2022-11-11T10:31:28;101003.97;;;13.45;78.66
56721;BME280;53183;47.412;18.884;2022-11-11T10:34:16;100990.69;;;13.45;78.11
56721;BME280;53183;47.412;18.884;2022-11-11T10:37:16;100993.44;;;13.44;79.54
56721;BME280;53183;47.412;18.884;2022-11-11T10:40:16;100987.78;;;13.51;78.59
56721;BME280;53183;47.412;18.884;2022-11-11T10:43:03;100989.31;;;13.36;78.54
56721;BME280;53183;47.412;18.884;2022-11-11T10:46:43;100990.09;;;13.38;79.97
56721;BME280;53183;47.412;18.884;2022-11-11T10:49:37;100990.28;;;13.76;76.83
56721;BME280;53183;47.412;18.884;2022-11-11T10:52:35;100987.16;;;13.87;75.42
56721;BME280;53183;47.412;18.884;2022-11-11T10:55:38;100995.47;;;13.79;76.59
56721;BME280;53183;47.412;18.884;2022-11-11T10:58:33;101009.66;;;13.78;74.89
56721;BME280;53183;47.412;18.884;2022-11-11T11:02:16;100998.38;;;13.94;74.38
56721;BME280;53183;47.412;18.884;2022-11-11T11:04:51;101001.12;;;13.92;73.98
56721;BME280;53183;47.412;18.884;2022-11-11T11:07:45;101000.66;;;13.82;74.45
56721;BME280;53183;47.412;18.884;2022-11-11T11:10:40;101000.19;;;13.73;76.06
56721;BME280;53183;47.412;18.884;2022-11-11T11:16:25;100985.09;;;13.73;75.72
56721;BME280;53183;47.412;18.884;2022-11-11T11:19:22;100973.25;;;13.80;75.57
56721;BME280;53183;47.412;18.884;2022-11-11T11:22:07;100968.22;;;13.74;74.86
56721;BME280;53183;47.412;18.884;2022-11-11T11:25:08;100970.88;;;13.74;75.98
56721;BME280;53183;47.412;18.884;2022-11-11T11:28:06;100970.19;;;13.49;76.25
56721;BME280;53183;47.412;18.884;2022-11-11T11:31:03;100963.28;;;13.45;76.45
56721;BME280;53183;47.412;18.884;2022-11-11T11:33:54;100960.34;;;13.30;77.31
56721;BME280;53183;47.412;18.884;2022-11-11T11:36:40;100959.94;;;13.18;79.54
56721;BME280;53183;47.412;18.884;2022-11-11T11:39:36;100965.47;;;13.13;79.87
56721;BME280;53183;47.412;18.884;2022-11-11T11:42:27;100955.09;;;13.07;80.36
56721;BME280;53183;47.412;18.884;2022-11-11T11:51:35;100963.78;;;12.88;82.41
56721;BME280;53183;47.412;18.884;2022-11-11T11:57:52;100967.41;;;12.64;84.69
56721;BME280;53183;47.412;18.884;2022-11-11T12:01:09;100966.25;;;12.71;84.10
56721;BME280;53183;47.412;18.884;2022-11-11T12:07:18;100966.00;;;12.77;83.29
56721;BME280;53183;47.412;18.884;2022-11-11T12:10:52;100970.13;;;12.84;82.93
56721;BME280;53183;47.412;18.884;2022-11-11T12:17:02;100980.28;;;12.97;83.10
56721;BME280;53183;47.412;18.884;2022-11-11T12:23:50;100976.78;;;12.73;85.55
56721;BME280;53183;47.412;18.884;2022-11-11T12:30:18;100966.75;;;12.81;84.78
56721;BME280;53183;47.412;18.884;2022-11-11T12:45:17;100991.62;;;12.55;86.63
56721;BME280;53183;47.412;18.884;2022-11-11T12:48:57;100986.72;;;12.67;85.13
56721;BME280;53183;47.412;18.884;2022-11-11T12:58:23;100961.12;;;12.88;83.80
56721;BME280;53183;47.412;18.884;2022-11-11T13:01:42;100964.22;;;13.00;82.90
56721;BME280;53183;47.412;18.884;2022-11-11T13:11:19;100988.03;;;12.56;84.07
56721;BME280;53183;47.412;18.884;2022-11-11T13:17:24;100966.47;;;12.65;84.74
56721;BME280;53183;47.412;18.884;2022-11-11T13:23:23;100948.87;;;12.62;84.93
56721;BME280;53183;47.412;18.884;2022-11-11T13:26:37;100946.44;;;12.80;84.48
56721;BME280;53183;47.412;18.884;2022-11-11T13:32:39;100956.06;;;12.82;83.58
56721;BME280;53183;47.412;18.884;2022-11-11T13:35:34;100955.00;;;12.86;83.61
56721;BME280;53183;47.412;18.884;2022-11-11T13:38:45;100961.25;;;12.85;83.90
56721;BME280;53183;47.412;18.884;2022-11-11T13:41:35;100967.50;;;12.84;83.58
56721;BME280;53183;47.412;18.884;2022-11-11T13:44:34;100960.59;;;12.80;84.32
56721;BME280;53183;47.412;18.884;2022-11-11T13:47:43;100957.22;;;12.75;85.08
56721;BME280;53183;47.412;18.884;2022-11-11T13:50:35;100959.25;;;12.68;85.87
56721;BME280;53183;47.412;18.884;2022-11-11T13:53:28;100943.97;;;12.75;84.94
56721;BME280;53183;47.412;18.884;2022-11-11T13:59:28;100943.53;;;12.64;85.47
56721;BME280;53183;47.412;18.884;2022-11-11T14:07:52;100938.31;;;12.39;85.53
56721;BME280;53183;47.412;18.884;2022-11-11T14:10:54;100932.19;;;12.37;85.91
56721;BME280;53183;47.412;18.884;2022-11-11T14:13:40;100936.41;;;12.19;86.50
56721;BME280;53183;47.412;18.884;2022-11-11T14:22:27;100944.44;;;11.92;88.08
56721;BME280;53183;47.412;18.884;2022-11-11T14:25:25;100947.38;;;11.85;88.60
56721;BME280;53183;47.412;18.884;2022-11-11T14:28:32;100939.66;;;11.77;89.58
56721;BME280;53183;47.412;18.884;2022-11-11T14:34:28;100929.53;;;11.65;91.22
56721;BME280;53183;47.412;18.884;2022-11-11T14:40:37;100907.84;;;11.54;91.98
56721;BME280;53183;47.412;18.884;2022-11-11T14:43:39;100908.31;;;11.40;92.63
56721;BME280;53183;47.412;18.884;2022-11-11T14:46:25;100906.09;;;11.27;93.64
56721;BME280;53183;47.412;18.884;2022-11-11T14:49:47;100909.69;;;11.25;94.14
56721;BME280;53183;47.412;18.884;2022-11-11T14:52:40;100910.59;;;11.25;93.85
56721;BME280;53183;47.412;18.884;2022-11-11T14:55:28;100918.84;;;11.15;95.25
56721;BME280;53183;47.412;18.884;2022-11-11T14:58:17;100916.41;;;11.09;95.28
56721;BME280;53183;47.412;18.884;2022-11-11T15:03:53;100910.03;;;10.89;96.44
56721;BME280;53183;47.412;18.884;2022-11-11T15:06:44;100919.94;;;10.83;96.88
56721;BME280;53183;47.412;18.884;2022-11-11T15:19:07;100907.44;;;10.60;99.30
56721;BME280;53183;47.412;18.884;2022-11-11T15:25:44;100929.56;;;10.26;100.00
56721;BME280;53183;47.412;18.884;2022-11-11T15:31:48;100931.19;;;10.00;100.00
56721;BME280;53183;47.412;18.884;2022-11-11T15:38:11;100925.53;;;9.81;100.00
56721;BME280;53183;47.412;18.884;2022-11-11T15:40:58;100922.41;;;9.67;100.00
56721;BME280;53183;47.412;18.884;2022-11-11T15:43:44;100917.41;;;9.58;100.00
56721;BME280;53183;47.412;18.884;2022-11-11T15:46:40;100927.25;;;9.51;100.00
56721;BME280;53183;47.412;18.884;2022-11-11T15:49:43;100925.63;;;9.46;100.00
56721;BME280;53183;47.412;18.884;2022-11-11T15:52:30;100931.91;;;9.40;100.00
56721;BME280;53183;47.412;18.884;2022-11-11T15:55:38;100933.91;;;9.32;100.00
56721;BME280;53183;47.412;18.884;2022-11-11T15:58:31;100929.56;;;9.29;100.00
56721;BME280;53183;47.412;18.884;2022-11-11T16:01:17;100921.81;;;9.23;100.00
56721;BME280;53183;47.412;18.884;2022-11-11T16:04:08;100922.19;;;9.08;100.00
56721;BME280;53183;47.412;18.884;2022-11-11T16:07:24;100932.00;;;9.01;100.00
56721;BME280;53183;47.412;18.884;2022-11-11T16:10:28;100932.19;;;8.95;100.00
56721;BME280;53183;47.412;18.884;2022-11-11T16:13:15;100943.81;;;8.86;100.00
56721;BME280;53183;47.412;18.884;2022-11-11T16:16:11;100943.00;;;8.83;100.00
56721;BME280;53183;47.412;18.884;2022-11-11T16:19:20;100944.25;;;8.66;100.00
56721;BME280;53183;47.412;18.884;2022-11-11T16:22:12;100940.00;;;8.61;100.00
56721;BME280;53183;47.412;18.884;2022-11-11T16:25:00;100937.59;;;8.50;100.00
56721;BME280;53183;47.412;18.884;2022-11-11T16:27:51;100942.16;;;8.42;100.00
56721;BME280;53183;47.412;18.884;2022-11-11T16:30:37;100939.66;;;8.36;100.00
56721;BME280;53183;47.412;18.884;2022-11-11T16:36:11;100942.41;;;8.30;100.00
56721;BME280;53183;47.412;18.884;2022-11-11T16:39:12;100940.88;;;8.19;100.00
56721;BME280;53183;47.412;18.884;2022-11-11T16:42:00;100940.94;;;8.16;100.00
56721;BME280;53183;47.412;18.884;2022-11-11T16:47:43;100937.75;;;7.99;100.00
56721;BME280;53183;47.412;18.884;2022-11-11T16:50:30;100931.63;;;7.98;100.00
56721;BME280;53183;47.412;18.884;2022-11-11T16:53:25;100925.63;;;7.92;100.00